Time;durP1;ratioP1;P1;durP2;ratioP2;P2;SDS_P1;SDS_P2;PMS_P1;PMS_P2;Temp;Humidity;BMP_temperature;BMP_pressure;BME280_temperature;BME280_humidity;BME280_pressure;Samples;Min_cycle;Max_cycle;Signal;HPM_P1;HPM_P2
2023/03/01 00:01:56;;;;;;;;;;;20.60;55.70;;;;;;1561205;74;1125;-62
2023/03/01 00:03:58;;;;;;;;;;;20.60;55.60;;;;;;1575991;74;735;-63
2023/03/01 00:06:00;;;;;;;;;;;20.60;55.70;;;;;;1578067;74;702;-62
2023/03/01 00:08:02;;;;;;;;;;;20.60;55.50;;;;;;1575664;74;566;-60
2023/03/01 00:10:04;;;;;;;;;;;20.60;55.50;;;;;;1581245;74;706;-60
2023/03/01 00:12:06;;;;;;;;;;;20.70;55.50;;;;;;1572100;73;1946;-60
2023/03/01 00:14:08;;;;;;;;;;;20.70;55.50;;;;;;1572785;74;622;-60
2023/03/01 00:16:17;;;;;;;;;;;20.70;55.80;;;;;;1576278;74;764;-61
2023/03/01 00:18:18;;;;;;;;;;;20.60;55.30;;;;;;1578808;74;657;-60
2023/03/01 00:20:20;;;;;;;;;;;20.60;55.60;;;;;;1581549;74;785;-60
2023/03/01 00:22:23;;;;;;;;;;;20.60;55.30;;;;;;1585986;74;1143;-60
2023/03/01 00:24:25;;;;;;;;;;;20.70;55.40;;;;;;1568255;74;758;-59
2023/03/01 00:26:27;;;;;;;;;;;20.60;55.40;;;;;;1576914;74;1547;-60
2023/03/01 00:28:28;;;;;;;;;;;20.60;55.40;;;;;;1580680;74;620;-60
2023/03/01 00:30:30;;;;;;;;;;;20.60;55.50;;;;;;1577151;74;824;-60
2023/03/01 00:32:32;;;;;;;;;;;20.60;55.50;;;;;;1545559;76;1940;-60
2023/03/01 00:34:34;;;;;;;;;;;20.50;55.50;;;;;;1552110;76;714;-60
2023/03/01 00:36:36;;;;;;;;;;;20.50;55.50;;;;;;1515628;78;720;-59
2023/03/01 00:38:39;;;;;;;;;;;20.60;55.50;;;;;;1540719;76;760;-62
2023/03/01 00:40:41;;;;;;;;;;;20.60;55.40;;;;;;1530657;75;1568;-63
2023/03/01 00:42:42;;;;;;;;;;;20.60;55.30;;;;;;1535648;76;687;-63
2023/03/01 00:44:44;;;;;;;;;;;20.60;55.30;;;;;;1544664;76;685;-59
2023/03/01 00:46:46;;;;;;;;;;;20.50;55.50;;;;;;1544699;76;718;-62
2023/03/01 00:48:48;;;;;;;;;;;20.50;55.50;;;;;;1551119;75;702;-62
2023/03/01 00:50:50;;;;;;;;;;;20.40;55.50;;;;;;1517179;78;1178;-63
2023/03/01 00:52:55;;;;;;;;;;;20.50;55.70;;;;;;1486226;77;1943;-63
2023/03/01 00:54:57;;;;;;;;;;;20.50;56.00;;;;;;1548093;75;1541;-63
2023/03/01 00:56:59;;;;;;;;;;;20.50;55.90;;;;;;1523634;77;720;-60
2023/03/01 00:59:01;;;;;;;;;;;20.40;56.00;;;;;;1523307;77;731;-60
2023/03/01 01:01:19;;;;;;;;;;;20.40;56.10;;;;;;1518236;78;1080;-60
2023/03/01 01:03:21;;;;;;;;;;;20.40;56.50;;;;;;1511752;77;737;-60
2023/03/01 01:05:23;;;;;;;;;;;20.30;56.50;;;;;;1522192;78;701;-60
2023/03/01 01:07:24;;;;;;;;;;;20.30;56.80;;;;;;1518220;77;684;-59
2023/03/01 01:09:26;;;;;;;;;;;20.30;56.70;;;;;;1520488;77;1530;-60
2023/03/01 01:11:29;;;;;;;;;;;20.30;56.50;;;;;;1529511;76;1162;-60
2023/03/01 01:13:31;;;;;;;;;;;20.30;56.60;;;;;;1517790;78;1945;-59
2023/03/01 01:15:35;;;;;;;;;;;20.30;56.60;;;;;;1511969;77;697;-60
2023/03/01 01:17:37;;;;;;;;;;;20.30;56.60;;;;;;1514331;77;754;-59
2023/03/01 01:19:39;;;;;;;;;;;20.30;56.50;;;;;;1513321;77;703;-60
2023/03/01 01:21:42;;;;;;;;;;;20.30;56.40;;;;;;1505718;78;1127;-60
2023/03/01 01:23:45;;;;;;;;;;;20.20;56.60;;;;;;1565818;74;1607;-61
2023/03/01 01:25:46;;;;;;;;;;;20.30;56.50;;;;;;1573699;74;719;-61
2023/03/01 01:27:48;;;;;;;;;;;20.20;56.50;;;;;;1570658;73;702;-61
2023/03/01 01:29:50;;;;;;;;;;;20.20;56.50;;;;;;1582762;73;705;-61
2023/03/01 01:31:52;;;;;;;;;;;20.20;56.40;;;;;;1565613;74;1108;-61
2023/03/01 01:33:54;;;;;;;;;;;20.20;56.40;;;;;;1571719;74;1930;-60
2023/03/01 01:35:56;;;;;;;;;;;20.30;56.50;;;;;;1584697;74;745;-62
2023/03/01 01:37:58;;;;;;;;;;;20.30;56.40;;;;;;1582321;74;1635;-61
2023/03/01 01:40:00;;;;;;;;;;;20.30;56.60;;;;;;1579807;74;673;-62
2023/03/01 01:42:02;;;;;;;;;;;20.30;56.30;;;;;;1572234;74;1171;-60
2023/03/01 01:44:18;;;;;;;;;;;20.30;56.30;;;;;;1582016;74;672;-60
2023/03/01 01:46:24;;;;;;;;;;;20.30;56.20;;;;;;1570164;74;1888;-60
2023/03/01 01:48:40;;;;;;;;;;;20.30;56.30;;;;;;1576901;74;1716;-61
2023/03/01 01:50:37;;;;;;;;;;;20.30;56.20;;;;;;1570919;74;1699;-61
2023/03/01 01:52:35;;;;;;;;;;;20.30;56.20;;;;;;1577232;74;1928;-61
2023/03/01 01:54:41;;;;;;;;;;;20.20;56.30;;;;;;1585032;74;902;-61
2023/03/01 01:56:44;;;;;;;;;;;20.20;56.20;;;;;;1571270;74;674;-61
2023/03/01 01:58:47;;;;;;;;;;;20.20;56.10;;;;;;1580645;74;708;-60
2023/03/01 02:00:49;;;;;;;;;;;20.30;56.30;;;;;;1544556;76;1117;-60
2023/03/01 02:02:54;;;;;;;;;;;20.20;56.20;;;;;;1544236;75;688;-60
2023/03/01 02:04:58;;;;;;;;;;;20.20;56.20;;;;;;1511406;77;1694;-60
2023/03/01 02:07:01;;;;;;;;;;;20.20;56.30;;;;;;1576303;74;931;-62
2023/03/01 02:09:05;;;;;;;;;;;20.20;56.20;;;;;;1571918;74;1078;-61
2023/03/01 02:11:07;;;;;;;;;;;20.20;56.30;;;;;;1579038;74;1182;-60
2023/03/01 02:13:09;;;;;;;;;;;20.20;56.10;;;;;;1580270;74;1927;-58
2023/03/01 02:15:11;;;;;;;;;;;20.20;56.20;;;;;;1561359;74;664;-58
2023/03/01 02:17:13;;;;;;;;;;;20.30;56.10;;;;;;1583635;74;704;-59
2023/03/01 02:19:16;;;;;;;;;;;20.30;56.20;;;;;;1579700;74;1603;-58
2023/03/01 02:21:20;;;;;;;;;;;20.30;56.00;;;;;;1560651;74;1125;-57
2023/03/01 02:23:22;;;;;;;;;;;20.30;55.90;;;;;;1576925;74;793;-57
2023/03/01 02:25:31;;;;;;;;;;;20.30;55.80;;;;;;1548638;76;668;-58
2023/03/01 02:27:38;;;;;;;;;;;20.30;55.70;;;;;;1578895;74;671;-57
2023/03/01 02:29:40;;;;;;;;;;;20.40;55.60;;;;;;1575068;74;701;-59
2023/03/01 02:31:42;;;;;;;;;;;20.40;55.70;;;;;;1566929;74;1131;-59
2023/03/01 02:33:44;;;;;;;;;;;20.30;55.80;;;;;;1572727;74;1935;-59
2023/03/01 02:35:46;;;;;;;;;;;20.40;55.90;;;;;;1536009;76;731;-60
2023/03/01 02:37:48;;;;;;;;;;;20.40;55.70;;;;;;1545862;76;559;-60
2023/03/01 02:39:50;;;;;;;;;;;20.30;56.00;;;;;;1540322;76;684;-57
2023/03/01 02:41:52;;;;;;;;;;;20.30;56.00;;;;;;1506061;76;1166;-58
2023/03/01 02:43:54;;;;;;;;;;;20.40;55.80;;;;;;1531741;76;763;-59
2023/03/01 02:45:58;;;;;;;;;;;20.40;55.70;;;;;;1526838;75;758;-57
2023/03/01 02:48:00;;;;;;;;;;;20.40;55.50;;;;;;1545515;76;1156;-59
2023/03/01 02:50:01;;;;;;;;;;;20.50;55.50;;;;;;1540581;76;713;-58
2023/03/01 02:52:22;;;;;;;;;;;20.50;55.20;;;;;;1539689;76;1116;-58
2023/03/01 02:54:37;;;;;;;;;;;20.60;55.10;;;;;;1539793;76;1963;-57
2023/03/01 02:56:39;;;;;;;;;;;20.40;55.20;;;;;;1504759;77;708;-59
2023/03/01 02:58:45;;;;;;;;;;;20.40;55.40;;;;;;1563061;74;606;-59
2023/03/01 03:00:46;;;;;;;;;;;20.40;55.50;;;;;;1581087;73;1577;-59
2023/03/01 03:02:49;;;;;;;;;;;20.40;55.40;;;;;;1586917;74;702;-57
2023/03/01 03:04:51;;;;;;;;;;;20.40;55.30;;;;;;1577035;74;665;-58
2023/03/01 03:06:52;;;;;;;;;;;20.40;55.10;;;;;;1584711;74;852;-57
2023/03/01 03:08:54;;;;;;;;;;;20.50;55.10;;;;;;1577795;75;719;-57
2023/03/01 03:10:56;;;;;;;;;;;20.50;55.10;;;;;;1569387;74;1148;-57
2023/03/01 03:12:59;;;;;;;;;;;20.50;55.00;;;;;;1568690;74;1945;-57
2023/03/01 03:15:01;;;;;;;;;;;20.50;54.90;;;;;;1570869;74;1585;-59
2023/03/01 03:17:06;;;;;;;;;;;20.50;54.90;;;;;;1562272;74;676;-60
2023/03/01 03:19:06;;;;;;;;;;;20.50;55.00;;;;;;1581308;74;1631;-59
2023/03/01 03:21:12;;;;;;;;;;;20.40;54.80;;;;;;1575951;73;1205;-59
2023/03/01 03:23:14;;;;;;;;;;;20.50;54.80;;;;;;1576627;74;713;-60
2023/03/01 03:25:17;;;;;;;;;;;20.50;54.80;;;;;;1578685;74;749;-59
2023/03/01 03:27:19;;;;;;;;;;;20.50;54.80;;;;;;1570726;74;724;-59
2023/03/01 03:29:20;;;;;;;;;;;20.50;54.90;;;;;;1575268;73;1174;-59
2023/03/01 03:31:22;;;;;;;;;;;20.50;54.90;;;;;;1563753;74;1090;-60
2023/03/01 03:33:24;;;;;;;;;;;20.50;54.80;;;;;;1585176;74;1931;-63
2023/03/01 03:35:30;;;;;;;;;;;20.40;54.80;;;;;;1579513;74;1075;-61
2023/03/01 03:39:54;;;;;;;;;;;20.40;55.00;;;;;;1586421;74;1668;-61
2023/03/01 03:41:56;;;;;;;;;;;20.40;55.00;;;;;;1585560;73;1168;-60
2023/03/01 03:43:58;;;;;;;;;;;20.40;55.00;;;;;;1585839;73;1481;-60
2023/03/01 03:46:00;;;;;;;;;;;20.40;54.90;;;;;;1572085;74;689;-60
2023/03/01 03:48:02;;;;;;;;;;;20.50;55.10;;;;;;1581272;74;758;-60
2023/03/01 03:50:04;;;;;;;;;;;20.40;55.00;;;;;;1566596;74;718;-60
2023/03/01 03:52:13;;;;;;;;;;;20.40;55.00;;;;;;1580687;73;1168;-60
2023/03/01 03:54:10;;;;;;;;;;;20.40;55.30;;;;;;1560526;74;1935;-60
2023/03/01 03:56:12;;;;;;;;;;;20.40;55.40;;;;;;1579907;74;769;-60
2023/03/01 03:58:14;;;;;;;;;;;20.40;55.20;;;;;;1571509;74;1582;-60
2023/03/01 04:00:16;;;;;;;;;;;20.40;55.50;;;;;;1588989;74;686;-59
2023/03/01 04:02:21;;;;;;;;;;;20.30;55.30;;;;;;1569200;74;1120;-60
2023/03/01 04:04:21;;;;;;;;;;;20.40;55.40;;;;;;1580573;74;1624;-60
2023/03/01 04:06:23;;;;;;;;;;;20.30;55.50;;;;;;1567530;74;759;-61
2023/03/01 04:08:25;;;;;;;;;;;20.20;55.90;;;;;;1566863;74;768;-58
2023/03/01 04:10:27;;;;;;;;;;;20.10;56.00;;;;;;1573820;74;859;-59
2023/03/01 04:12:29;;;;;;;;;;;20.10;55.90;;;;;;1572763;74;1751;-58
2023/03/01 04:14:31;;;;;;;;;;;20.10;56.20;;;;;;1564778;74;1940;-59
2023/03/01 04:16:33;;;;;;;;;;;20.10;56.30;;;;;;1572587;74;954;-58
2023/03/01 04:18:35;;;;;;;;;;;20.00;56.30;;;;;;1581084;74;673;-59
2023/03/01 04:20:37;;;;;;;;;;;20.00;56.30;;;;;;1578254;73;1142;-59
2023/03/01 04:22:39;;;;;;;;;;;20.00;56.20;;;;;;1583059;74;716;-59
2023/03/01 04:24:41;;;;;;;;;;;20.00;56.70;;;;;;1575121;74;679;-58
2023/03/01 04:26:43;;;;;;;;;;;20.00;56.70;;;;;;1586710;74;1573;-59
2023/03/01 04:28:45;;;;;;;;;;;20.00;56.50;;;;;;1577787;74;688;-58
2023/03/01 04:30:47;;;;;;;;;;;20.00;56.70;;;;;;1569879;74;1144;-61
2023/03/01 04:32:50;;;;;;;;;;;20.00;56.30;;;;;;1586367;74;776;-67
2023/03/01 04:34:51;;;;;;;;;;;20.00;56.30;;;;;;1567145;74;1913;-61
2023/03/01 04:36:53;;;;;;;;;;;20.10;56.40;;;;;;1571119;74;719;-62
2023/03/01 04:38:55;;;;;;;;;;;20.00;56.30;;;;;;1581165;74;672;-63
2023/03/01 04:40:57;;;;;;;;;;;20.00;56.50;;;;;;1584481;74;1860;-62
2023/03/01 04:42:59;;;;;;;;;;;20.00;56.60;;;;;;1587395;74;747;-61
2023/03/01 04:45:01;;;;;;;;;;;19.90;56.50;;;;;;1577845;74;662;-61
2023/03/01 04:47:03;;;;;;;;;;;20.00;56.30;;;;;;1572050;74;695;-61
2023/03/01 04:49:05;;;;;;;;;;;20.00;56.40;;;;;;1584642;74;902;-61
2023/03/01 04:51:07;;;;;;;;;;;20.00;56.50;;;;;;1582479;74;1138;-60
2023/03/01 04:53:09;;;;;;;;;;;20.00;56.40;;;;;;1575735;74;1537;-61
2023/03/01 04:55:11;;;;;;;;;;;20.00;56.40;;;;;;1584661;74;1944;-61
2023/03/01 04:57:13;;;;;;;;;;;20.00;56.50;;;;;;1573611;74;774;-61
2023/03/01 04:59:14;;;;;;;;;;;19.90;56.40;;;;;;1582311;74;656;-61
2023/03/01 05:01:17;;;;;;;;;;;20.00;56.30;;;;;;1570386;74;1108;-62
2023/03/01 05:03:19;;;;;;;;;;;20.00;56.30;;;;;;1570785;74;668;-63
2023/03/01 05:05:25;;;;;;;;;;;20.00;56.30;;;;;;1576796;74;664;-62
2023/03/01 05:07:27;;;;;;;;;;;20.00;56.30;;;;;;1586486;73;1527;-63
2023/03/01 05:09:28;;;;;;;;;;;20.00;56.30;;;;;;1586095;73;687;-61
2023/03/01 05:11:35;;;;;;;;;;;20.00;56.20;;;;;;1580258;74;1111;-62
2023/03/01 05:13:34;;;;;;;;;;;20.00;56.10;;;;;;1582322;74;1923;-61
2023/03/01 05:15:36;;;;;;;;;;;20.00;56.00;;;;;;1568870;74;677;-61
2023/03/01 05:17:38;;;;;;;;;;;20.00;56.00;;;;;;1580184;74;639;-61
2023/03/01 05:19:42;;;;;;;;;;;20.10;55.90;;;;;;1571688;74;706;-62
2023/03/01 05:22:01;;;;;;;;;;;20.10;56.00;;;;;;1578747;74;1645;-61
2023/03/01 05:24:03;;;;;;;;;;;20.10;56.00;;;;;;1577552;74;636;-60
2023/03/01 05:26:05;;;;;;;;;;;20.00;55.90;;;;;;1572428;74;686;-63
2023/03/01 05:28:13;;;;;;;;;;;20.10;56.00;;;;;;1568642;74;676;-61
2023/03/01 05:30:17;;;;;;;;;;;20.10;55.80;;;;;;1582594;73;679;-61
2023/03/01 05:32:19;;;;;;;;;;;20.20;55.90;;;;;;1578044;73;1100;-60
2023/03/01 05:34:25;;;;;;;;;;;20.10;55.70;;;;;;1581366;74;1927;-62
2023/03/01 05:36:27;;;;;;;;;;;20.10;55.80;;;;;;1581967;74;1324;-61
2023/03/01 05:38:29;;;;;;;;;;;20.20;55.70;;;;;;1582845;74;680;-61
2023/03/01 05:40:30;;;;;;;;;;;20.10;55.70;;;;;;1577771;74;686;-61
2023/03/01 05:42:32;;;;;;;;;;;20.20;55.70;;;;;;1531159;76;1392;-60
2023/03/01 05:44:34;;;;;;;;;;;20.10;56.00;;;;;;1507411;76;788;-60
2023/03/01 05:46:36;;;;;;;;;;;20.10;56.00;;;;;;1499726;77;673;-60
2023/03/01 05:48:38;;;;;;;;;;;20.10;56.00;;;;;;1515473;76;699;-60
2023/03/01 05:50:41;;;;;;;;;;;20.20;56.20;;;;;;1542868;75;1572;-60
2023/03/01 05:52:43;;;;;;;;;;;20.10;55.90;;;;;;1546162;75;705;-60
2023/03/01 05:54:45;;;;;;;;;;;20.20;55.80;;;;;;1543665;75;1923;-61
2023/03/01 05:56:47;;;;;;;;;;;20.10;55.70;;;;;;1536568;76;727;-59
2023/03/01 05:58:49;;;;;;;;;;;20.20;55.60;;;;;;1559818;75;592;-59
2023/03/01 06:00:51;;;;;;;;;;;20.20;55.50;;;;;;1535833;75;1135;-59
2023/03/01 06:02:55;;;;;;;;;;;20.20;55.30;;;;;;1501302;78;703;-60
2023/03/01 06:04:57;;;;;;;;;;;20.30;55.30;;;;;;1510143;76;1794;-61
2023/03/01 06:06:59;;;;;;;;;;;20.40;55.20;;;;;;1549631;76;730;-61
2023/03/01 06:09:01;;;;;;;;;;;20.20;55.20;;;;;;1532801;76;695;-60
2023/03/01 06:11:02;;;;;;;;;;;20.30;55.30;;;;;;1536830;76;1219;-60
2023/03/01 06:13:04;;;;;;;;;;;20.30;55.20;;;;;;1535339;76;712;-60
2023/03/01 06:15:09;;;;;;;;;;;20.30;55.20;;;;;;1543209;76;1931;-60
2023/03/01 06:17:10;;;;;;;;;;;20.30;55.20;;;;;;1533748;76;1607;-60
2023/03/01 06:19:12;;;;;;;;;;;20.20;55.20;;;;;;1513206;78;1668;-61
2023/03/01 06:21:14;;;;;;;;;;;20.30;55.20;;;;;;1516959;76;1161;-60
2023/03/01 06:23:16;;;;;;;;;;;20.30;55.20;;;;;;1508949;78;663;-60
2023/03/01 06:25:19;;;;;;;;;;;20.30;55.30;;;;;;1519658;77;776;-60
2023/03/01 06:27:21;;;;;;;;;;;20.30;55.30;;;;;;1512549;77;755;-60
2023/03/01 06:29:23;;;;;;;;;;;20.30;55.50;;;;;;1517446;77;784;-61
2023/03/01 06:31:25;;;;;;;;;;;20.30;55.60;;;;;;1507051;77;1130;-61
2023/03/01 06:33:27;;;;;;;;;;;20.30;55.70;;;;;;1514383;77;1539;-61
2023/03/01 06:35:32;;;;;;;;;;;20.20;55.70;;;;;;1515297;78;1940;-61
2023/03/01 06:37:35;;;;;;;;;;;20.20;55.90;;;;;;1526215;77;754;-60
2023/03/01 06:39:37;;;;;;;;;;;20.20;55.80;;;;;;1533443;76;722;-61
2023/03/01 06:41:38;;;;;;;;;;;20.40;55.80;;;;;;1543013;75;1129;-61
2023/03/01 06:43:40;;;;;;;;;;;20.30;55.60;;;;;;1503779;78;681;-61
2023/03/01 06:45:42;;;;;;;;;;;20.40;55.50;;;;;;1545022;76;1535;-61
2023/03/01 06:47:44;;;;;;;;;;;20.40;55.40;;;;;;1555565;76;690;-62
2023/03/01 06:49:46;;;;;;;;;;;20.50;55.40;;;;;;1522653;76;682;-62
2023/03/01 06:51:48;;;;;;;;;;;20.40;55.40;;;;;;1540312;76;1099;-61
2023/03/01 06:53:50;;;;;;;;;;;20.40;55.10;;;;;;1578916;74;680;-60
2023/03/01 06:55:56;;;;;;;;;;;20.40;54.60;;;;;;1569705;74;1937;-60
2023/03/01 06:57:58;;;;;;;;;;;20.40;54.20;;;;;;1567504;74;1558;-60
2023/03/01 07:00:00;;;;;;;;;;;20.50;53.60;;;;;;1581284;74;1577;-63
2023/03/01 07:02:02;;;;;;;;;;;20.40;53.00;;;;;;1580729;73;1124;-61
2023/03/01 07:04:04;;;;;;;;;;;20.40;52.60;;;;;;1582156;74;657;-61
2023/03/01 07:06:06;;;;;;;;;;;20.40;52.30;;;;;;1578646;73;700;-60
2023/03/01 07:08:08;;;;;;;;;;;20.40;52.30;;;;;;1576772;74;706;-61
2023/03/01 07:10:10;;;;;;;;;;;20.40;52.30;;;;;;1582025;74;702;-60
2023/03/01 07:12:12;;;;;;;;;;;20.30;52.20;;;;;;1578858;73;1118;-60
2023/03/01 07:14:14;;;;;;;;;;;20.40;52.20;;;;;;1582353;74;1923;-61
2023/03/01 07:16:16;;;;;;;;;;;20.40;52.30;;;;;;1580041;74;924;-61
2023/03/01 07:18:18;;;;;;;;;;;20.40;52.30;;;;;;1540466;76;726;-62
2023/03/01 07:20:25;;;;;;;;;;;20.40;52.30;;;;;;1540800;76;703;-61
2023/03/01 07:22:23;;;;;;;;;;;20.40;52.30;;;;;;1517544;77;1595;-62
2023/03/01 07:24:25;;;;;;;;;;;20.40;52.30;;;;;;1541692;76;661;-61
2023/03/01 07:26:27;;;;;;;;;;;20.40;52.20;;;;;;1524845;77;709;-61
2023/03/01 07:28:30;;;;;;;;;;;20.30;52.40;;;;;;1524361;77;1546;-61
2023/03/01 07:30:32;;;;;;;;;;;20.30;52.50;;;;;;1522694;77;700;-61
2023/03/01 07:32:34;;;;;;;;;;;20.40;52.40;;;;;;1519849;77;1147;-61
2023/03/01 07:34:35;;;;;;;;;;;20.20;50.00;;;;;;1519468;77;1936;-61
2023/03/01 07:36:39;;;;;;;;;;;20.00;49.50;;;;;;1510226;78;1070;-61
2023/03/01 07:38:41;;;;;;;;;;;19.90;49.30;;;;;;1515268;77;802;-60
2023/03/01 07:40:43;;;;;;;;;;;19.70;49.80;;;;;;1517360;78;1164;-60
2023/03/01 07:42:44;;;;;;;;;;;19.70;49.70;;;;;;1512337;78;1645;-61
2023/03/01 07:44:46;;;;;;;;;;;19.60;49.30;;;;;;1513844;78;692;-60
2023/03/01 07:46:48;;;;;;;;;;;19.50;48.90;;;;;;1508348;78;700;-61
2023/03/01 07:48:50;;;;;;;;;;;19.50;50.10;;;;;;1510764;77;696;-61
2023/03/01 07:50:52;;;;;;;;;;;19.50;50.80;;;;;;1518653;78;1114;-60
2023/03/01 07:52:54;;;;;;;;;;;19.60;51.30;;;;;;1515501;77;670;-61
2023/03/01 07:54:56;;;;;;;;;;;19.70;51.50;;;;;;1515925;78;1934;-62
2023/03/01 07:56:57;;;;;;;;;;;19.70;51.90;;;;;;1513573;78;1544;-60
2023/03/01 07:58:59;;;;;;;;;;;19.70;52.30;;;;;;1513271;77;675;-61
2023/03/01 08:01:02;;;;;;;;;;;19.70;52.10;;;;;;1506772;78;1067;-61
2023/03/01 08:03:04;;;;;;;;;;;19.80;51.80;;;;;;1520119;78;774;-61
2023/03/01 08:05:06;;;;;;;;;;;19.90;51.60;;;;;;1518113;78;750;-63
2023/03/01 08:07:08;;;;;;;;;;;19.90;51.50;;;;;;1514704;78;895;-60
2023/03/01 08:09:10;;;;;;;;;;;19.90;51.40;;;;;;1517791;77;670;-61
2023/03/01 08:11:12;;;;;;;;;;;20.00;51.30;;;;;;1520688;78;1582;-61
2023/03/01 08:13:14;;;;;;;;;;;20.10;51.40;;;;;;1522024;78;712;-62
2023/03/01 08:15:16;;;;;;;;;;;20.10;51.40;;;;;;1523092;78;1930;-61
2023/03/01 08:17:19;;;;;;;;;;;20.10;51.40;;;;;;1521107;78;747;-61
2023/03/01 08:19:21;;;;;;;;;;;20.20;51.40;;;;;;1520437;78;732;-60
2023/03/01 08:21:22;;;;;;;;;;;20.20;51.40;;;;;;1521250;78;1163;-59
2023/03/01 08:23:25;;;;;;;;;;;20.20;51.40;;;;;;1514567;78;743;-62
2023/03/01 08:25:27;;;;;;;;;;;20.20;51.40;;;;;;1521603;78;1591;-62
2023/03/01 08:27:29;;;;;;;;;;;20.20;51.50;;;;;;1517406;78;728;-62
2023/03/01 08:29:31;;;;;;;;;;;20.20;51.50;;;;;;1521838;78;725;-60
2023/03/01 08:31:35;;;;;;;;;;;20.20;51.50;;;;;;1519183;78;1144;-61
2023/03/01 08:33:37;;;;;;;;;;;20.20;51.50;;;;;;1518175;78;804;-60
2023/03/01 08:35:39;;;;;;;;;;;20.20;51.50;;;;;;1517692;78;1959;-60
2023/03/01 08:37:41;;;;;;;;;;;20.20;51.50;;;;;;1524206;77;1084;-62
2023/03/01 08:39:42;;;;;;;;;;;20.20;51.50;;;;;;1523200;77;1547;-61
2023/03/01 08:41:44;;;;;;;;;;;20.20;51.60;;;;;;1530762;77;1277;-60
2023/03/01 08:43:46;;;;;;;;;;;20.20;51.60;;;;;;1525094;77;775;-59
2023/03/01 08:45:48;;;;;;;;;;;20.20;51.60;;;;;;1528916;77;684;-60
2023/03/01 08:47:52;;;;;;;;;;;20.20;51.70;;;;;;1527293;76;728;-58
2023/03/01 08:49:54;;;;;;;;;;;20.20;51.60;;;;;;1530386;77;744;-58
2023/03/01 08:51:56;;;;;;;;;;;20.20;51.70;;;;;;1529521;77;1130;-60
2023/03/01 08:53:58;;;;;;;;;;;20.30;51.90;;;;;;1527767;77;1531;-60
2023/03/01 08:56:02;;;;;;;;;;;20.30;51.90;;;;;;1529178;77;1946;-61
2023/03/01 08:58:04;;;;;;;;;;;20.20;51.80;;;;;;1529464;77;770;-58
2023/03/01 09:00:08;;;;;;;;;;;20.20;51.90;;;;;;1528206;77;687;-60
2023/03/01 09:02:14;;;;;;;;;;;20.20;51.80;;;;;;1520151;77;1084;-57
2023/03/01 09:04:16;;;;;;;;;;;20.20;52.00;;;;;;1521631;77;1041;-58
2023/03/01 09:06:18;;;;;;;;;;;20.30;52.10;;;;;;1519380;77;1569;-59
2023/03/01 09:08:20;;;;;;;;;;;20.20;52.00;;;;;;1529232;77;690;-59
2023/03/01 09:10:22;;;;;;;;;;;20.20;52.00;;;;;;1529488;77;714;-58
2023/03/01 09:12:24;;;;;;;;;;;20.30;52.20;;;;;;1526763;77;1115;-59
2023/03/01 09:14:26;;;;;;;;;;;20.20;52.10;;;;;;1528410;77;685;-59
2023/03/01 09:16:29;;;;;;;;;;;20.30;52.20;;;;;;1527481;77;1944;-60
2023/03/01 09:18:31;;;;;;;;;;;20.20;52.10;;;;;;1528826;76;776;-59
2023/03/01 09:20:33;;;;;;;;;;;20.30;52.30;;;;;;1527145;77;1524;-57
2023/03/01 09:22:35;;;;;;;;;;;20.20;52.10;;;;;;1522892;77;1091;-58
2023/03/01 09:24:37;;;;;;;;;;;20.30;52.20;;;;;;1523285;77;789;-60
2023/03/01 09:26:38;;;;;;;;;;;20.20;52.10;;;;;;1526610;77;704;-59
2023/03/01 09:28:46;;;;;;;;;;;20.30;52.30;;;;;;1526273;77;658;-60
2023/03/01 09:30:48;;;;;;;;;;;20.30;52.30;;;;;;1518550;77;1131;-59
2023/03/01 09:32:50;;;;;;;;;;;20.30;52.30;;;;;;1529391;77;788;-59
2023/03/01 09:35:04;;;;;;;;;;;20.30;52.30;;;;;;1520669;76;1534;-58
2023/03/01 09:37:05;;;;;;;;;;;20.20;52.20;;;;;;1519641;77;1459;-58
2023/03/01 09:39:07;;;;;;;;;;;20.30;52.30;;;;;;1519611;77;1060;-58
2023/03/01 09:41:13;;;;;;;;;;;20.30;52.40;;;;;;1517466;77;1182;-57
2023/03/01 09:43:34;;;;;;;;;;;20.30;52.30;;;;;;1520962;77;1467;-59
2023/03/01 09:45:36;;;;;;;;;;;20.20;52.20;;;;;;1522371;77;669;-61
2023/03/01 09:47:38;;;;;;;;;;;20.20;52.30;;;;;;1520346;77;673;-58
2023/03/01 09:49:40;;;;;;;;;;;20.30;52.40;;;;;;1522583;77;1555;-59
2023/03/01 09:51:42;;;;;;;;;;;20.30;52.50;;;;;;1520590;77;1104;-59
2023/03/01 09:53:44;;;;;;;;;;;20.20;52.30;;;;;;1521749;77;694;-59
2023/03/01 09:55:46;;;;;;;;;;;20.30;52.40;;;;;;1518084;77;1938;-62
2023/03/01 09:57:50;;;;;;;;;;;20.20;52.30;;;;;;1520649;77;817;-60
2023/03/01 10:00:04;;;;;;;;;;;20.30;52.50;;;;;;1519418;77;694;-61
2023/03/01 10:02:10;;;;;;;;;;;20.30;52.40;;;;;;1516911;77;1103;-61
2023/03/01 10:04:13;;;;;;;;;;;20.30;52.40;;;;;;1518075;77;1550;-61
2023/03/01 10:06:23;;;;;;;;;;;20.30;52.10;;;;;;1516688;77;713;-62
2023/03/01 10:08:30;;;;;;;;;;;20.30;51.90;;;;;;1518521;77;743;-62
2023/03/01 10:10:36;;;;;;;;;;;20.30;51.90;;;;;;1520502;77;662;-62
2023/03/01 10:12:39;;;;;;;;;;;20.30;51.90;;;;;;1533292;76;718;-62
2023/03/01 10:14:46;;;;;;;;;;;20.30;51.90;;;;;;1569508;74;690;-62
2023/03/01 10:16:58;;;;;;;;;;;20.30;52.10;;;;;;1560973;74;1912;-62
2023/03/01 10:19:01;;;;;;;;;;;20.30;52.10;;;;;;1566152;74;638;-62
2023/03/01 10:21:04;;;;;;;;;;;20.20;52.00;;;;;;1566693;74;1097;-62
2023/03/01 10:23:07;;;;;;;;;;;20.30;52.10;;;;;;1568827;74;682;-62
2023/03/01 10:25:09;;;;;;;;;;;20.20;52.00;;;;;;1569759;74;697;-62
2023/03/01 10:27:22;;;;;;;;;;;20.30;52.10;;;;;;1569507;74;706;-61
2023/03/01 10:29:25;;;;;;;;;;;20.30;52.20;;;;;;1567960;74;798;-62
2023/03/01 10:31:36;;;;;;;;;;;20.20;52.10;;;;;;1570106;74;1530;-61
2023/03/01 10:33:33;;;;;;;;;;;20.30;52.20;;;;;;1565816;74;1609;-68
2023/03/01 10:35:35;;;;;;;;;;;20.30;52.30;;;;;;1564370;74;1928;-62
2023/03/01 10:37:37;;;;;;;;;;;20.30;52.30;;;;;;1566517;74;712;-62
2023/03/01 10:39:41;;;;;;;;;;;20.30;52.30;;;;;;1566562;74;1108;-62
2023/03/01 10:41:59;;;;;;;;;;;20.20;52.10;;;;;;1566124;74;1105;-63
2023/03/01 10:44:01;;;;;;;;;;;20.20;52.20;;;;;;1557786;74;701;-62
2023/03/01 10:46:03;;;;;;;;;;;20.20;52.20;;;;;;1574957;74;1672;-64
2023/03/01 10:48:17;;;;;;;;;;;20.20;52.30;;;;;;1553507;76;759;-62
2023/03/01 10:50:22;;;;;;;;;;;20.30;52.40;;;;;;1531408;76;1592;-62
2023/03/01 10:52:34;;;;;;;;;;;20.30;52.40;;;;;;1528090;77;1130;-62
2023/03/01 10:54:36;;;;;;;;;;;20.30;52.40;;;;;;1522225;77;693;-62
2023/03/01 10:56:49;;;;;;;;;;;20.30;52.50;;;;;;1488750;78;1948;-62
2023/03/01 10:58:57;;;;;;;;;;;20.30;52.50;;;;;;1526199;76;1504;-61
2023/03/01 11:01:04;;;;;;;;;;;20.30;52.50;;;;;;1526023;75;1197;-62
2023/03/01 11:03:07;;;;;;;;;;;20.30;52.50;;;;;;1537493;77;1204;-62
2023/03/01 11:05:10;;;;;;;;;;;20.30;52.40;;;;;;1538070;76;1104;-66
2023/03/01 11:07:12;;;;;;;;;;;20.30;52.50;;;;;;1531614;75;1331;-66
2023/03/01 11:09:16;;;;;;;;;;;20.30;52.50;;;;;;1537257;75;1072;-62
2023/03/01 11:11:20;;;;;;;;;;;20.40;52.50;;;;;;1536618;75;1171;-62
2023/03/01 11:13:22;;;;;;;;;;;20.30;52.50;;;;;;1536536;75;1525;-62
2023/03/01 11:15:25;;;;;;;;;;;20.40;52.50;;;;;;1537279;75;1212;-62
2023/03/01 11:17:31;;;;;;;;;;;20.40;52.50;;;;;;1536600;77;1947;-61
2023/03/01 11:19:33;;;;;;;;;;;20.30;52.50;;;;;;1539554;77;700;-62
2023/03/01 11:21:35;;;;;;;;;;;20.30;52.50;;;;;;1537585;77;1138;-62
2023/03/01 11:23:37;;;;;;;;;;;20.40;52.50;;;;;;1536682;76;700;-61
2023/03/01 11:25:43;;;;;;;;;;;20.30;52.50;;;;;;1538246;77;699;-62
2023/03/01 11:27:48;;;;;;;;;;;20.30;52.50;;;;;;1535859;77;1648;-62
2023/03/01 11:29:55;;;;;;;;;;;20.40;52.40;;;;;;1536350;77;713;-62
2023/03/01 11:31:57;;;;;;;;;;;20.40;52.50;;;;;;1534828;77;1734;-62
2023/03/01 11:34:01;;;;;;;;;;;20.40;52.40;;;;;;1538882;77;695;-62
2023/03/01 11:36:04;;;;;;;;;;;20.40;52.40;;;;;;1538109;76;1934;-62
2023/03/01 11:38:25;;;;;;;;;;;20.30;52.50;;;;;;1502633;78;1166;-62
2023/03/01 11:40:28;;;;;;;;;;;20.40;52.40;;;;;;1534834;77;615;-63
2023/03/01 11:42:33;;;;;;;;;;;20.30;52.50;;;;;;1538826;77;1596;-63
2023/03/01 11:44:35;;;;;;;;;;;20.30;52.40;;;;;;1533184;75;1364;-62
2023/03/01 11:46:39;;;;;;;;;;;20.30;52.50;;;;;;1538575;77;694;-62
2023/03/01 11:48:51;;;;;;;;;;;20.30;52.50;;;;;;1539269;77;1702;-62
2023/03/01 11:50:53;;;;;;;;;;;20.30;52.50;;;;;;1538024;77;1154;-62
2023/03/01 11:53:00;;;;;;;;;;;20.40;52.50;;;;;;1494171;78;888;-62
2023/03/01 11:55:15;;;;;;;;;;;20.40;52.50;;;;;;1510503;77;1486;-62
2023/03/01 11:57:28;;;;;;;;;;;20.40;52.50;;;;;;1506854;77;1949;-62
2023/03/01 11:59:31;;;;;;;;;;;20.30;52.50;;;;;;1544784;75;1095;-62
2023/03/01 12:01:44;;;;;;;;;;;20.40;52.50;;;;;;1576879;74;1199;-61
2023/03/01 12:03:50;;;;;;;;;;;20.30;52.50;;;;;;1577131;74;633;-62
2023/03/01 12:05:54;;;;;;;;;;;20.40;52.50;;;;;;1584543;74;1500;-61
2023/03/01 12:08:10;;;;;;;;;;;20.40;52.50;;;;;;1573013;74;662;-62
2023/03/01 12:10:19;;;;;;;;;;;20.40;52.50;;;;;;1582537;74;1560;-62
2023/03/01 12:12:37;;;;;;;;;;;20.40;52.50;;;;;;1580934;74;1183;-62
2023/03/01 12:14:40;;;;;;;;;;;20.40;52.40;;;;;;1576109;73;1544;-61
2023/03/01 12:17:01;;;;;;;;;;;20.40;52.50;;;;;;1585417;74;1941;-62